Time;durP1;ratioP1;P1;durP2;ratioP2;P2;SDS_P1;SDS_P2;PMS_P1;PMS_P2;Temp;Humidity;BMP_temperature;BMP_pressure;BME280_temperature;BME280_humidity;BME280_pressure;Samples;Min_cycle;Max_cycle;Signal;HPM_P1;HPM_P2
2022/12/03 00:00:42;;;;;;;16.30;9.68;;;3.60;99.90;;;;;;5038297;28;20533;-33
2022/12/03 00:03:09;;;;;;;16.60;9.52;;;3.50;99.90;;;;;;5055804;28;20045;-32
2022/12/03 00:05:35;;;;;;;16.45;9.70;;;3.90;99.90;;;;;;5055833;28;20053;-32
2022/12/03 00:08:00;;;;;;;14.55;9.73;;;3.50;99.90;;;;;;5055897;28;20071;-32
2022/12/03 00:10:26;;;;;;;14.43;9.68;;;3.50;99.90;;;;;;5056804;28;20049;-32
2022/12/03 00:12:52;;;;;;;16.50;9.52;;;3.90;99.90;;;;;;5055905;28;20483;-33
2022/12/03 00:15:18;;;;;;;18.15;11.32;;;3.50;99.90;;;;;;5056224;28;20083;-32
2022/12/03 00:17:43;;;;;;;18.98;9.55;;;3.80;99.90;;;;;;5056121;28;20045;-32
2022/12/03 00:20:16;;;;;;;15.57;9.10;;;3.50;99.90;;;;;;5055795;28;20045;-33
2022/12/03 00:22:42;;;;;;;15.27;8.75;;;3.50;99.90;;;;;;5056663;28;20073;-33
2022/12/03 00:25:08;;;;;;;18.92;10.82;;;3.50;99.90;;;;;;5056006;28;20399;-32
2022/12/03 00:27:34;;;;;;;17.88;10.10;;;3.50;99.90;;;;;;5054293;28;20041;-32
2022/12/03 00:29:59;;;;;;;16.75;9.60;;;3.50;99.90;;;;;;5055585;28;20041;-33
2022/12/03 00:32:25;;;;;;;18.25;10.50;;;3.50;99.90;;;;;;5054359;28;20053;-33
2022/12/03 00:34:51;;;;;;;16.88;10.27;;;3.40;99.90;;;;;;5055512;28;20045;-32
2022/12/03 00:37:16;;;;;;;16.27;10.30;;;3.40;99.90;;;;;;5055526;28;20041;-32
2022/12/03 00:39:42;;;;;;;18.23;10.15;;;3.60;99.90;;;;;;5055467;28;20045;-32
2022/12/03 00:42:08;;;;;;;18.98;10.18;;;3.50;99.90;;;;;;5055428;28;20063;-32
2022/12/03 00:44:33;;;;;;;19.13;10.68;;;3.50;99.90;;;;;;5055422;28;20056;-33
2022/12/03 00:46:59;;;;;;;19.17;10.55;;;3.60;99.90;;;;;;5055874;28;20428;-32
2022/12/03 00:49:24;;;;;;;15.27;9.73;;;4.20;99.90;;;;;;5055832;28;20044;-32
2022/12/03 00:51:51;;;;;;;16.85;9.48;;;3.70;99.90;;;;;;5055672;28;20052;-32
2022/12/03 00:54:17;;;;;;;16.73;9.77;;;3.70;99.90;;;;;;5055152;28;20075;-32
2022/12/03 00:56:42;;;;;;;16.33;9.43;;;3.80;99.90;;;;;;5055141;28;20049;-34
2022/12/03 00:59:08;;;;;;;16.40;10.18;;;3.90;99.90;;;;;;5055066;28;20102;-32
2022/12/03 01:01:33;;;;;;;17.40;9.88;;;3.90;99.90;;;;;;5055492;28;20103;-31
2022/12/03 01:03:59;;;;;;;17.98;10.60;;;3.90;99.90;;;;;;5055512;28;20068;-32
2022/12/03 01:06:25;;;;;;;17.15;10.25;;;3.90;99.90;;;;;;5053765;28;20080;-34
2022/12/03 01:08:50;;;;;;;16.50;9.30;;;3.90;99.90;;;;;;5054435;28;20140;-32
2022/12/03 01:14:00;;;;;;;18.48;9.52;;;4.00;99.90;;;;;;5055435;28;20109;-32
2022/12/03 01:16:26;;;;;;;19.05;9.95;;;4.00;99.90;;;;;;5054743;28;20044;-35
2022/12/03 01:18:52;;;;;;;16.10;10.05;;;4.00;99.90;;;;;;5054879;28;20048;-33
2022/12/03 01:21:18;;;;;;;18.88;10.30;;;4.00;99.90;;;;;;5053447;28;20045;-32
2022/12/03 01:23:44;;;;;;;15.45;9.75;;;4.00;99.90;;;;;;5054887;28;20092;-32
2022/12/03 01:26:09;;;;;;;20.92;10.32;;;4.00;99.90;;;;;;5054568;28;20049;-32
2022/12/03 01:28:35;;;;;;;16.85;10.32;;;4.00;99.90;;;;;;5055018;28;20133;-32
2022/12/03 01:33:45;;;;;;;17.98;10.60;;;3.90;99.90;;;;;;5053457;28;20184;-32
2022/12/03 01:36:13;;;;;;;16.63;9.98;;;3.90;99.90;;;;;;5053406;28;20124;-32
2022/12/03 01:38:38;;;;;;;19.02;10.02;;;3.90;99.90;;;;;;5053697;28;20040;-33
2022/12/03 01:41:04;;;;;;;15.23;10.65;;;3.90;99.90;;;;;;5054536;28;20064;-33
2022/12/03 01:43:30;;;;;;;17.77;10.10;;;3.90;99.90;;;;;;5054221;28;20075;-32
2022/12/03 01:45:56;;;;;;;18.33;10.32;;;3.90;99.90;;;;;;5054133;28;20070;-33
2022/12/03 01:48:21;;;;;;;18.33;10.10;;;4.00;99.90;;;;;;5052915;28;20052;-32
2022/12/03 01:50:47;;;;;;;20.95;11.50;;;3.80;99.90;;;;;;5053706;28;20052;-32
2022/12/03 01:53:17;;;;;;;18.60;10.85;;;3.90;99.90;;;;;;5054029;28;20100;-32
2022/12/03 01:55:42;;;;;;;18.75;10.95;;;3.90;99.90;;;;;;5054066;28;20045;-32
2022/12/03 01:58:12;;;;;;;18.52;10.98;;;3.90;99.90;;;;;;5054015;28;20040;-32
2022/12/03 02:00:39;;;;;;;19.50;11.88;;;3.90;99.90;;;;;;5054566;28;20052;-32
2022/12/03 02:03:17;;;;;;;21.08;10.82;;;3.90;99.90;;;;;;5053913;28;20102;-32
2022/12/03 02:05:43;;;;;;;18.13;9.38;;;3.90;99.90;;;;;;5037170;28;20407;-32
2022/12/03 02:08:29;;;;;;;20.30;11.30;;;3.90;99.90;;;;;;5054113;28;20041;-33
2022/12/03 02:10:57;;;;;;;19.98;10.38;;;3.90;99.90;;;;;;5054276;28;20053;-33
2022/12/03 02:13:23;;;;;;;17.23;10.15;;;3.90;99.90;;;;;;5036160;28;20055;-32
2022/12/03 02:15:48;;;;;;;18.67;11.65;;;3.90;99.90;;;;;;5053089;28;20131;-32
2022/12/03 02:18:14;;;;;;;19.73;10.93;;;3.90;99.90;;;;;;5053502;28;20040;-33
2022/12/03 02:20:51;;;;;;;16.17;10.20;;;3.90;99.90;;;;;;5053665;28;20041;-33
2022/12/03 02:23:25;;;;;;;18.55;10.85;;;3.90;99.90;;;;;;5053719;28;20048;-32
2022/12/03 02:25:50;;;;;;;;;;;3.90;99.90;;;;;;5054331;28;20041;-32
2022/12/03 02:28:16;;;;;;;20.67;11.65;;;3.80;99.90;;;;;;5053848;28;20325;-33
2022/12/03 02:30:42;;;;;;;18.30;11.45;;;3.80;99.90;;;;;;5053757;28;20072;-32
2022/12/03 02:33:07;;;;;;;16.45;9.60;;;3.80;99.90;;;;;;5054094;28;20523;-32
2022/12/03 02:35:34;;;;;;;18.70;11.90;;;3.80;99.90;;;;;;5053728;28;20044;-32
2022/12/03 02:38:23;;;;;;;19.55;11.52;;;3.80;99.90;;;;;;5052524;28;20060;-33
2022/12/03 02:40:52;;;;;;;17.35;10.48;;;3.80;99.90;;;;;;5053471;28;20041;-32
2022/12/03 02:43:20;;;;;;;18.20;10.73;;;3.80;99.90;;;;;;5052477;28;20045;-32
2022/12/03 02:45:55;;;;;;;19.83;11.32;;;3.90;99.90;;;;;;5053681;28;20505;-32
2022/12/03 02:48:26;;;;;;;20.58;11.98;;;3.80;99.90;;;;;;5053437;28;20049;-33
2022/12/03 02:50:54;;;;;;;17.48;10.35;;;3.90;99.90;;;;;;5057056;28;20135;-33
2022/12/03 02:53:24;;;;;;;23.55;11.50;;;3.90;99.90;;;;;;5056234;28;20098;-32
2022/12/03 02:55:51;;;;;;;19.63;11.30;;;3.90;99.90;;;;;;5057422;28;20045;-32
2022/12/03 02:58:18;;;;;;;22.33;12.15;;;3.90;99.90;;;;;;5057336;28;20087;-33
2022/12/03 03:00:45;;;;;;;18.33;11.30;;;3.80;99.90;;;;;;5057551;28;20490;-33
2022/12/03 03:03:11;;;;;;;19.70;11.60;;;3.80;99.90;;;;;;5057865;28;20056;-32
2022/12/03 03:05:39;;;;;;;20.73;12.32;;;3.80;99.90;;;;;;5056041;28;20060;-33
2022/12/03 03:08:07;;;;;;;19.40;12.18;;;3.80;99.90;;;;;;5057046;28;20120;-32
2022/12/03 03:10:34;;;;;;;18.05;11.05;;;3.70;99.90;;;;;;5058328;28;20053;-33
2022/12/03 03:13:04;;;;;;;21.40;12.65;;;3.70;99.90;;;;;;5039253;28;20045;-33
2022/12/03 03:15:30;;;;;;;19.58;11.55;;;3.70;99.90;;;;;;5057402;28;20052;-32
2022/12/03 03:17:56;;;;;;;21.23;11.73;;;3.70;99.90;;;;;;5056910;28;20053;-32
2022/12/03 03:20:21;;;;;;;21.70;11.93;;;3.70;99.90;;;;;;5056948;28;20045;-33
2022/12/03 03:22:47;;;;;;;23.88;12.77;;;3.70;99.90;;;;;;5057748;28;20049;-32
2022/12/03 03:25:16;;;;;;;21.80;12.15;;;3.60;99.90;;;;;;5056862;28;20049;-34
2022/12/03 03:27:43;;;;;;;18.08;11.85;;;3.60;99.90;;;;;;5056789;28;20120;-34
2022/12/03 03:30:10;;;;;;;19.33;11.63;;;3.60;99.90;;;;;;5022485;28;20041;-32
2022/12/03 03:32:36;;;;;;;20.45;13.18;;;3.60;99.90;;;;;;5055555;28;20098;-32
2022/12/03 03:35:02;;;;;;;20.88;12.00;;;3.60;99.90;;;;;;5056998;28;20560;-33
2022/12/03 03:37:28;;;;;;;24.00;13.00;;;3.60;99.90;;;;;;5056716;28;20114;-33
2022/12/03 03:39:54;;;;;;;21.75;12.63;;;3.60;99.90;;;;;;5057180;28;20487;-32
2022/12/03 03:42:20;;;;;;;22.20;12.23;;;3.60;99.90;;;;;;5057066;28;20471;-32
2022/12/03 03:44:47;;;;;;;22.40;11.90;;;3.60;99.90;;;;;;5055564;28;20062;-33
2022/12/03 03:47:13;;;;;;;21.20;11.82;;;3.50;99.90;;;;;;5056763;28;20059;-32
2022/12/03 03:49:40;;;;;;;23.52;13.90;;;3.50;99.90;;;;;;5056680;28;20080;-32
2022/12/03 03:52:08;;;;;;;20.65;11.73;;;3.50;99.90;;;;;;5056300;28;20052;-32
2022/12/03 03:54:35;;;;;;;22.55;13.15;;;3.60;99.90;;;;;;5056355;28;20057;-33
2022/12/03 03:57:01;;;;;;;21.23;13.02;;;3.50;99.90;;;;;;5056267;28;20078;-32
2022/12/03 03:59:27;;;;;;;21.92;12.85;;;3.50;99.90;;;;;;5056303;28;20512;-33
2022/12/03 04:01:53;;;;;;;18.05;12.32;;;3.50;99.90;;;;;;5055476;28;20040;-32
2022/12/03 04:04:22;;;;;;;22.65;12.35;;;3.60;99.90;;;;;;5055158;28;20055;-32
2022/12/03 04:06:48;;;;;;;23.92;12.95;;;3.50;99.90;;;;;;5055989;28;20045;-32
2022/12/03 04:09:14;;;;;;;23.55;12.75;;;3.50;99.90;;;;;;5054725;28;20061;-33
2022/12/03 04:14:24;;;;;;;23.05;13.20;;;3.50;99.90;;;;;;5055969;28;20506;-32
2022/12/03 04:16:50;;;;;;;22.20;13.07;;;3.40;99.90;;;;;;5055843;28;20041;-32
2022/12/03 04:19:16;;;;;;;22.55;12.45;;;3.40;99.90;;;;;;5056249;28;20100;-32
2022/12/03 04:24:26;;;;;;;22.35;12.45;;;3.40;99.90;;;;;;5056253;28;20068;-33
2022/12/03 04:29:37;;;;;;;25.05;13.40;;;3.30;99.90;;;;;;5055631;28;20103;-32
2022/12/03 04:37:31;;;;;;;22.30;13.57;;;3.40;99.90;;;;;;5056120;28;20462;-32
2022/12/03 04:39:57;;;;;;;23.92;13.48;;;3.20;99.90;;;;;;5056009;28;20084;-33
2022/12/03 04:42:23;;;;;;;22.30;12.70;;;3.20;99.90;;;;;;5054179;28;20055;-32
2022/12/03 04:44:48;;;;;;;24.05;12.98;;;3.20;99.90;;;;;;5055951;28;20139;-32
2022/12/03 04:47:17;;;;;;;25.10;13.57;;;3.20;99.90;;;;;;5055351;28;20056;-32
2022/12/03 04:49:45;;;;;;;21.20;11.88;;;3.30;99.90;;;;;;5055195;28;20056;-32
2022/12/03 04:52:12;;;;;;;23.52;14.40;;;3.30;99.90;;;;;;5037673;28;20110;-33
2022/12/03 04:54:39;;;;;;;26.05;13.60;;;3.10;99.90;;;;;;5054882;28;20569;-32
2022/12/03 04:57:05;;;;;;;21.95;13.70;;;3.10;99.90;;;;;;5055976;28;20390;-32
2022/12/03 04:59:31;;;;;;;22.02;12.80;;;3.10;99.90;;;;;;5055118;28;20127;-32
2022/12/03 05:01:57;;;;;;;23.60;13.73;;;3.10;99.90;;;;;;5055046;28;20045;-32
2022/12/03 05:04:23;;;;;;;22.55;13.38;;;3.10;99.90;;;;;;5055009;28;20059;-32
2022/12/03 05:06:49;;;;;;;26.67;14.00;;;3.20;99.90;;;;;;5054652;28;20502;-32
2022/12/03 05:09:15;;;;;;;24.23;12.82;;;3.10;99.90;;;;;;5055220;28;20053;-32
2022/12/03 05:11:41;;;;;;;24.48;13.18;;;3.10;99.90;;;;;;5054527;28;20574;-32
2022/12/03 05:14:08;;;;;;;23.67;13.98;;;3.10;99.90;;;;;;5054720;28;20052;-33
2022/12/03 05:16:34;;;;;;;24.38;13.75;;;3.10;99.90;;;;;;5054769;28;20505;-32
2022/12/03 05:19:00;;;;;;;21.95;13.10;;;3.10;99.90;;;;;;5037883;28;20053;-32
2022/12/03 05:21:26;;;;;;;25.63;15.07;;;3.10;99.90;;;;;;5055255;28;20442;-32
2022/12/03 05:23:51;;;;;;;23.77;13.52;;;3.10;99.90;;;;;;5054602;28;20045;-32
2022/12/03 05:26:17;;;;;;;24.15;14.80;;;3.00;99.90;;;;;;5054859;28;20045;-33
2022/12/03 05:28:43;;;;;;;25.92;13.57;;;3.00;99.90;;;;;;5054463;28;20055;-32
2022/12/03 05:31:09;;;;;;;24.95;14.73;;;3.00;99.90;;;;;;5054389;28;20504;-33
2022/12/03 05:33:35;;;;;;;23.13;12.98;;;3.00;99.90;;;;;;5054485;28;20044;-32
2022/12/03 05:36:00;;;;;;;26.17;14.15;;;3.00;99.90;;;;;;5054416;28;20102;-33
2022/12/03 05:38:26;;;;;;;26.85;13.85;;;3.00;99.90;;;;;;5054903;28;20047;-32
2022/12/03 05:40:52;;;;;;;22.50;14.07;;;3.00;99.90;;;;;;5054320;28;20098;-32
2022/12/03 05:43:18;;;;;;;24.65;12.88;;;3.10;99.90;;;;;;5054634;28;20048;-32
2022/12/03 05:45:44;;;;;;;24.73;13.57;;;3.30;99.90;;;;;;5053622;28;20186;-32
2022/12/03 05:48:12;;;;;;;26.27;14.05;;;3.00;99.90;;;;;;5053048;28;20142;-32
2022/12/03 05:50:39;;;;;;;26.48;14.52;;;3.40;99.90;;;;;;5054031;28;20487;-32
2022/12/03 05:53:05;;;;;;;25.80;14.45;;;3.00;99.90;;;;;;5054379;28;20055;-32
2022/12/03 05:55:31;;;;;;;22.42;13.70;;;2.90;99.90;;;;;;5053315;28;20045;-32
2022/12/03 05:57:56;;;;;;;25.05;13.80;;;3.00;99.90;;;;;;5054607;28;20041;-33
2022/12/03 06:00:25;;;;;;;24.35;13.82;;;2.90;99.90;;;;;;5054309;28;20530;-32
2022/12/03 06:02:52;;;;;;;24.38;13.98;;;2.90;99.90;;;;;;5053888;28;20068;-32
2022/12/03 06:05:18;;;;;;;24.77;13.15;;;2.90;99.90;;;;;;5054455;28;20131;-32
2022/12/03 06:07:45;;;;;;;26.90;14.65;;;2.90;99.90;;;;;;5054401;28;20049;-32
2022/12/03 06:10:14;;;;;;;22.85;13.25;;;2.90;99.90;;;;;;5054218;28;20103;-32
2022/12/03 06:12:41;;;;;;;24.08;14.48;;;3.00;99.90;;;;;;5052837;28;20099;-34
2022/12/03 06:15:08;;;;;;;23.17;12.93;;;2.90;99.90;;;;;;5053789;28;20456;-32
2022/12/03 06:17:34;;;;;;;23.00;13.20;;;2.90;99.90;;;;;;5053345;28;20529;-32
2022/12/03 06:19:59;;;;;;;24.15;12.82;;;3.00;99.90;;;;;;5054120;28;20037;-33
2022/12/03 06:22:25;;;;;;;23.17;12.85;;;3.00;99.90;;;;;;5054163;28;20096;-32
2022/12/03 06:24:51;;;;;;;22.65;13.27;;;3.00;99.90;;;;;;5053388;28;20041;-32
2022/12/03 06:27:17;;;;;;;23.13;12.23;;;3.00;99.90;;;;;;5053556;28;20037;-32
2022/12/03 06:29:43;;;;;;;24.58;12.35;;;3.00;99.90;;;;;;5053226;28;20503;-32
2022/12/03 06:32:09;;;;;;;20.42;12.00;;;3.40;99.90;;;;;;5053459;28;20048;-32
2022/12/03 06:34:34;;;;;;;21.17;12.88;;;2.90;99.90;;;;;;5053568;28;20478;-32
2022/12/03 06:37:00;;;;;;;22.48;12.05;;;2.90;99.90;;;;;;5053998;28;20089;-33
2022/12/03 06:39:26;;;;;;;22.08;12.80;;;2.90;99.90;;;;;;5053720;28;20051;-33
2022/12/03 06:41:52;;;;;;;26.38;13.07;;;2.90;99.90;;;;;;5053616;28;20045;-33
2022/12/03 06:44:17;;;;;;;22.80;12.00;;;2.90;99.90;;;;;;5052800;28;20051;-32
2022/12/03 06:46:43;;;;;;;23.30;12.48;;;3.00;99.90;;;;;;5053389;28;20048;-32
2022/12/03 06:49:09;;;;;;;23.25;13.00;;;3.00;99.90;;;;;;5054199;28;20053;-32
2022/12/03 06:51:35;;;;;;;20.55;12.10;;;2.90;99.90;;;;;;5052651;28;20520;-32
2022/12/03 06:54:01;;;;;;;19.38;10.80;;;3.00;99.90;;;;;;5053359;28;20098;-32
2022/12/03 06:56:27;;;;;;;23.15;12.00;;;2.90;99.90;;;;;;5053367;28;20049;-33
2022/12/03 06:58:53;;;;;;;21.05;11.48;;;2.90;99.90;;;;;;5053270;28;20060;-32
2022/12/03 07:01:19;;;;;;;23.05;12.45;;;3.00;99.90;;;;;;5052292;28;20049;-32
2022/12/03 07:03:45;;;;;;;25.40;12.65;;;2.90;99.90;;;;;;5053235;28;20044;-32
2022/12/03 07:06:11;;;;;;;23.45;12.32;;;2.90;99.90;;;;;;5053759;28;20045;-32
2022/12/03 07:08:36;;;;;;;22.92;12.23;;;2.90;99.90;;;;;;5053003;28;20494;-33
2022/12/03 07:11:02;;;;;;;24.10;12.63;;;2.80;99.90;;;;;;5053939;28;20056;-33
2022/12/03 07:13:28;;;;;;;25.50;12.85;;;2.80;99.90;;;;;;5053183;28;20047;-32
2022/12/03 07:15:53;;;;;;;25.08;13.48;;;2.80;99.90;;;;;;5053119;28;20091;-32
2022/12/03 07:18:19;;;;;;;26.13;13.95;;;2.80;99.90;;;;;;5053045;28;20072;-32
2022/12/03 07:20:45;;;;;;;25.23;12.75;;;2.80;99.90;;;;;;5052080;28;20372;-32
2022/12/03 07:23:10;;;;;;;23.13;12.18;;;3.00;99.90;;;;;;5053093;28;20095;-33
2022/12/03 07:25:36;;;;;;;22.00;11.90;;;2.80;99.90;;;;;;5052973;28;20107;-32
2022/12/03 07:28:02;;;;;;;23.23;12.25;;;2.70;99.90;;;;;;5053783;28;20072;-32
2022/12/03 07:30:28;;;;;;;23.55;12.40;;;2.70;99.90;;;;;;5052890;28;20427;-32
2022/12/03 07:32:54;;;;;;;22.02;11.43;;;2.70;99.90;;;;;;5053130;28;20045;-32
2022/12/03 07:35:20;;;;;;;22.48;11.65;;;2.70;99.90;;;;;;5053213;28;20467;-32
2022/12/03 07:37:46;;;;;;;22.50;11.90;;;2.70;99.90;;;;;;5055959;28;20491;-32
2022/12/03 07:40:12;;;;;;;23.17;12.40;;;3.00;99.90;;;;;;5056451;28;20095;-32
2022/12/03 07:42:38;;;;;;;24.73;12.98;;;2.70;99.90;;;;;;5056941;28;20051;-32
2022/12/03 07:45:04;;;;;;;25.08;12.23;;;2.70;99.90;;;;;;5055281;28;20044;-32
2022/12/03 07:47:30;;;;;;;24.95;12.00;;;2.70;99.90;;;;;;5056409;28;20045;-33
2022/12/03 07:49:56;;;;;;;24.30;12.60;;;2.90;99.90;;;;;;5057042;28;20041;-32
2022/12/03 07:52:21;;;;;;;21.48;11.38;;;2.70;99.90;;;;;;5056711;28;20471;-32
2022/12/03 07:54:47;;;;;;;18.80;10.85;;;2.70;99.90;;;;;;5055829;28;20048;-31
2022/12/03 07:57:13;;;;;;;24.10;11.27;;;3.20;99.90;;;;;;5056124;28;20119;-32
2022/12/03 07:59:38;;;;;;;22.83;12.13;;;2.80;99.90;;;;;;5056157;28;20368;-32
2022/12/03 08:02:05;;;;;;;22.20;11.43;;;2.70;99.90;;;;;;5056058;28;20131;-32
2022/12/03 08:04:31;;;;;;;20.80;11.65;;;2.70;99.90;;;;;;5056072;28;20459;-32
2022/12/03 08:06:56;;;;;;;22.77;10.85;;;3.60;99.90;;;;;;5056023;28;20084;-32
2022/12/03 08:09:22;;;;;;;23.02;12.23;;;2.70;99.90;;;;;;5056179;28;20049;-32
2022/12/03 08:11:48;;;;;;;19.60;11.15;;;2.70;99.90;;;;;;5055861;28;20166;-32
2022/12/03 08:14:17;;;;;;;21.17;12.13;;;2.70;99.90;;;;;;5055972;28;20102;-32
2022/12/03 08:16:44;;;;;;;24.35;12.25;;;2.80;99.90;;;;;;5055893;28;20139;-32
2022/12/03 08:19:12;;;;;;;21.25;11.55;;;2.70;99.90;;;;;;5055795;28;20045;-32
2022/12/03 08:21:38;;;;;;;23.90;12.52;;;2.70;99.90;;;;;;5055707;28;20135;-32
2022/12/03 08:24:14;;;;;;;22.05;11.63;;;2.60;99.90;;;;;;5055772;28;20086;-32
2022/12/03 08:26:42;;;;;;;21.95;12.15;;;2.60;99.90;;;;;;5055785;28;20084;-33
2022/12/03 08:29:10;;;;;;;22.80;11.98;;;2.80;99.90;;;;;;5055745;28;20063;-31
2022/12/03 08:31:36;;;;;;;23.55;12.55;;;2.60;99.90;;;;;;5054426;28;20052;-32
2022/12/03 08:34:19;;;;;;;23.63;12.75;;;2.60;99.90;;;;;;5055549;28;20048;-31
2022/12/03 08:36:46;;;;;;;24.10;13.18;;;2.60;99.90;;;;;;5055591;28;20084;-32
2022/12/03 08:39:15;;;;;;;25.85;13.68;;;2.60;99.90;;;;;;5056409;28;20060;-32
2022/12/03 08:44:34;;;;;;;25.35;12.40;;;2.60;99.90;;;;;;5040692;28;20103;-32
2022/12/03 08:47:17;;;;;;;24.80;13.02;;;2.50;99.90;;;;;;5087953;28;20049;-32
2022/12/03 08:49:56;;;;;;;25.42;13.60;;;2.50;99.90;;;;;;5055415;28;20052;-32
2022/12/03 08:52:30;;;;;;;24.85;12.63;;;2.50;99.90;;;;;;5055252;28;20128;-31
2022/12/03 08:54:55;;;;;;;;;;;2.50;99.90;;;;;;5055573;28;20479;-32
2022/12/03 08:57:26;;;;;;;24.77;12.20;;;2.50;99.90;;;;;;5055190;28;19920;-32
2022/12/03 09:00:14;;;;;;;27.08;13.00;;;2.50;99.90;;;;;;5055406;28;20107;-32
2022/12/03 09:02:44;;;;;;;25.38;13.65;;;2.50;99.90;;;;;;5055329;28;20052;-32
2022/12/03 09:05:18;;;;;;;25.98;13.18;;;2.50;99.90;;;;;;5055013;28;20506;-32
2022/12/03 09:07:43;;;;;;;;;;;2.50;99.90;;;;;;5054808;28;20395;-33
2022/12/03 09:10:09;;;;;;;28.80;14.45;;;2.50;99.90;;;;;;5055056;28;19920;-32
2022/12/03 09:12:35;;;;;;;27.40;14.57;;;2.50;99.90;;;;;;5054850;28;20483;-33
2022/12/03 09:15:01;;;;;;;27.52;13.68;;;2.50;99.90;;;;;;5054798;28;20045;-32
2022/12/03 09:17:27;;;;;;;29.05;13.88;;;2.60;99.90;;;;;;5054753;28;20142;-32
2022/12/03 09:19:53;;;;;;;25.13;13.23;;;3.00;99.90;;;;;;5054516;28;20126;-32
2022/12/03 09:22:19;;;;;;;26.95;14.75;;;2.60;99.90;;;;;;5087774;28;20056;-32
2022/12/03 09:24:44;;;;;;;29.75;14.25;;;2.60;99.90;;;;;;5054236;28;20045;-32
2022/12/03 09:27:10;;;;;;;27.40;15.23;;;2.60;99.90;;;;;;5053246;28;20076;-32
2022/12/03 09:29:36;;;;;;;27.52;14.30;;;2.60;99.90;;;;;;5054549;28;20135;-32
2022/12/03 09:32:01;;;;;;;27.98;13.98;;;2.70;99.90;;;;;;5054421;28;20037;-32
2022/12/03 09:34:27;;;;;;;24.38;13.02;;;2.60;99.90;;;;;;5054971;28;20352;-32
2022/12/03 09:36:53;;;;;;;24.98;14.73;;;2.70;99.90;;;;;;5054220;28;20472;-32
2022/12/03 09:39:19;;;;;;;25.10;14.35;;;2.70;99.90;;;;;;5070195;28;20041;-33
2022/12/03 09:41:45;;;;;;;24.48;13.82;;;2.70;99.90;;;;;;5054863;28;20041;-32
2022/12/03 09:44:11;;;;;;;24.48;13.60;;;2.60;99.90;;;;;;5054172;28;20066;-32
2022/12/03 09:46:38;;;;;;;27.35;14.85;;;2.70;10.50;;;;;;5036235;28;20041;-31
2022/12/03 09:49:06;;;;;;;26.55;14.63;;;2.70;1.00;;;;;;5054109;28;20057;-32
2022/12/03 09:51:35;;;;;;;25.77;14.52;;;2.60;99.90;;;;;;5052602;28;20127;-32
2022/12/03 09:54:04;;;;;;;26.83;14.55;;;2.70;99.90;;;;;;5036185;28;20059;-33
2022/12/03 09:56:30;;;;;;;28.83;14.25;;;2.70;91.80;;;;;;5052932;28;20049;-32
2022/12/03 09:58:56;;;;;;;27.90;14.40;;;2.70;1.00;;;;;;5053895;28;20053;-31
2022/12/03 10:01:22;;;;;;;24.23;14.40;;;2.70;1.00;;;;;;5053801;28;20445;-32
2022/12/03 10:03:50;;;;;;;26.70;14.70;;;2.70;99.90;;;;;;5020634;28;20047;-32
2022/12/03 10:06:19;;;;;;;29.45;15.20;;;2.70;1.00;;;;;;5036242;28;20064;-32
2022/12/03 10:08:50;;;;;;;30.00;15.20;;;2.80;99.90;;;;;;5053279;28;20420;-33
2022/12/03 10:11:18;;;;;;;29.50;15.38;;;3.30;99.90;;;;;;5053831;28;20357;-32
2022/12/03 10:13:44;;;;;;;27.20;14.82;;;2.80;99.90;;;;;;5054126;28;20049;-33
2022/12/03 10:16:14;;;;;;;29.08;15.25;;;2.80;99.90;;;;;;5053887;28;20041;-32
2022/12/03 10:18:46;;;;;;;31.75;15.98;;;3.10;99.90;;;;;;5052134;28;20099;-33
2022/12/03 10:21:19;;;;;;;28.48;14.88;;;2.80;1.00;;;;;;5054260;28;20118;-33
2022/12/03 10:23:45;;;;;;;;;;;2.80;20.80;;;;;;5036532;28;20056;-32
2022/12/03 10:26:12;;;;;;;25.58;13.75;;;2.70;1.00;;;;;;5053374;28;20382;-32
2022/12/03 10:28:40;;;;;;;29.98;15.10;;;2.80;99.90;;;;;;5053302;28;20076;-32
2022/12/03 10:31:09;;;;;;;26.00;14.77;;;2.80;99.90;;;;;;5053511;28;20041;-32
2022/12/03 10:33:38;;;;;;;26.38;14.23;;;2.70;15.00;;;;;;5053483;28;20364;-32
2022/12/03 10:36:20;;;;;;;24.35;14.02;;;2.80;1.00;;;;;;5053535;28;20041;-32
2022/12/03 10:39:04;;;;;;;26.20;14.18;;;2.80;99.90;;;;;;5053973;28;20364;-33
2022/12/03 10:41:29;;;;;;;28.85;15.57;;;2.90;99.90;;;;;;5053520;28;20041;-31
2022/12/03 10:44:20;;;;;;;29.67;15.13;;;2.80;99.90;;;;;;5053435;28;20041;-32
2022/12/03 10:47:09;;;;;;;30.13;14.77;;;2.80;99.90;;;;;;5053345;28;20053;-32
2022/12/03 10:49:35;;;;;;;29.73;14.88;;;2.80;99.90;;;;;;5053460;28;20045;-32
2022/12/03 10:52:01;;;;;;;29.08;14.93;;;2.80;99.90;;;;;;5052919;28;20048;-33
2022/12/03 10:54:29;;;;;;;30.45;16.45;;;3.30;99.90;;;;;;5052170;28;20075;-32
2022/12/03 10:56:55;;;;;;;26.23;14.75;;;2.90;1.00;;;;;;5052116;28;20049;-33
2022/12/03 10:59:28;;;;;;;27.83;15.25;;;3.00;99.90;;;;;;5053309;28;20098;-32
2022/12/03 11:01:54;;;;;;;26.75;14.38;;;3.00;1.00;;;;;;5053368;28;20041;-32
2022/12/03 11:04:25;;;;;;;27.58;14.95;;;3.00;99.20;;;;;;5053259;28;20064;-32
2022/12/03 11:06:51;;;;;;;26.60;14.55;;;3.10;99.90;;;;;;5053177;28;20041;-32
2022/12/03 11:09:25;;;;;;;27.92;15.20;;;3.10;74.00;;;;;;5053038;28;20053;-32
2022/12/03 11:11:52;;;;;;;25.63;14.25;;;3.10;99.90;;;;;;5054660;28;20049;-32
2022/12/03 11:14:56;;;;;;;26.67;14.75;;;3.20;99.90;;;;;;5039336;28;20045;-32
2022/12/03 11:17:40;;;;;;;27.88;14.57;;;3.10;91.90;;;;;;5057376;28;20483;-33
2022/12/03 11:20:09;;;;;;;31.40;15.55;;;3.10;1.00;;;;;;5056923;28;20060;-32
2022/12/03 11:22:43;;;;;;;24.13;14.00;;;3.20;99.90;;;;;;5057248;28;20041;-33
2022/12/03 11:25:30;;;;;;;26.52;14.93;;;3.20;1.00;;;;;;5056294;28;20057;-31
2022/12/03 11:28:14;;;;;;;26.65;14.45;;;3.20;99.90;;;;;;5085628;28;20053;-33
2022/12/03 11:30:48;;;;;;;26.27;14.00;;;3.20;99.90;;;;;;5056704;28;20059;-32
2022/12/03 11:33:23;;;;;;;27.90;15.60;;;3.20;1.00;;;;;;5056778;28;20049;-32
2022/12/03 11:36:04;;;;;;;26.63;15.55;;;3.10;1.00;;;;;;5055396;28;20084;-32
2022/12/03 11:38:39;;;;;;;28.10;15.95;;;3.10;99.90;;;;;;5056937;28;20049;-32
2022/12/03 11:41:13;;;;;;;27.20;14.02;;;3.10;99.90;;;;;;5055960;28;20053;-32
2022/12/03 11:43:51;;;;;;;25.05;14.68;;;3.00;99.90;;;;;;5056652;28;20048;-32
2022/12/03 11:46:35;;;;;;;29.67;15.13;;;3.00;99.90;;;;;;5056370;28;20084;-32
2022/12/03 11:49:02;;;;;;;29.13;15.75;;;3.00;1.00;;;;;;5057236;28;20060;-31
2022/12/03 11:51:29;;;;;;;28.23;14.30;;;3.00;1.00;;;;;;5056060;28;20484;-32
2022/12/03 11:53:57;;;;;;;29.88;15.95;;;2.90;1.00;;;;;;5055658;28;20060;-32
2022/12/03 11:56:25;;;;;;;29.02;15.63;;;2.90;99.90;;;;;;5056350;28;20045;-34
2022/12/03 11:59:03;;;;;;;29.88;15.80;;;2.90;1.00;;;;;;5056866;28;20056;-32
2022/12/03 12:01:37;;;;;;;27.67;15.30;;;2.90;1.00;;;;;;5055652;28;20044;-32
2022/12/03 12:04:04;;;;;;;28.55;16.13;;;3.00;1.00;;;;;;5056860;28;20373;-32
2022/12/03 12:06:40;;;;;;;26.95;15.43;;;2.80;1.00;;;;;;5054979;28;20041;-32
2022/12/03 12:09:06;;;;;;;27.33;15.13;;;2.80;99.90;;;;;;5056389;28;20419;-32
2022/12/03 12:11:39;;;;;;;27.67;15.40;;;2.80;1.00;;;;;;5055972;28;20045;-32
2022/12/03 12:14:12;;;;;;;28.70;15.48;;;2.80;99.90;;;;;;5054920;28;20106;-32
2022/12/03 12:16:44;;;;;;;29.95;15.77;;;2.80;18.80;;;;;;5056355;28;20091;-32
2022/12/03 12:19:28;;;;;;;27.63;15.23;;;2.80;1.00;;;;;;5055411;28;20049;-32
2022/12/03 12:21:55;;;;;;;28.15;16.38;;;2.70;1.00;;;;;;5055655;28;20060;-32
2022/12/03 12:24:39;;;;;;;28.85;15.07;;;2.70;1.00;;;;;;5055796;28;20049;-32
2022/12/03 12:27:10;;;;;;;27.55;15.27;;;3.20;40.10;;;;;;5055800;28;20083;-32
2022/12/03 12:29:39;;;;;;;31.27;16.80;;;2.80;1.00;;;;;;5054549;28;20467;-34
2022/12/03 12:32:07;;;;;;;29.50;17.70;;;2.90;99.90;;;;;;5054392;28;20494;-31
2022/12/03 12:34:36;;;;;;;28.40;15.82;;;2.70;1.00;;;;;;5055845;28;20056;-31
2022/12/03 12:37:05;;;;;;;29.05;15.25;;;2.70;99.90;;;;;;5055579;28;20083;-32
2022/12/03 12:39:30;;;;;;;28.65;15.70;;;2.70;1.00;;;;;;5055606;28;20052;-32
2022/12/03 12:41:57;;;;;;;31.20;16.08;;;2.70;22.90;;;;;;5054311;28;20439;-32
2022/12/03 12:44:25;;;;;;;27.20;15.75;;;2.80;42.70;;;;;;5055707;28;20467;-32
2022/12/03 12:46:52;;;;;;;28.45;16.25;;;2.80;99.90;;;;;;5055428;28;20049;-32
2022/12/03 12:49:23;;;;;;;29.48;16.48;;;2.80;1.00;;;;;;5055372;28;20047;-34
2022/12/03 12:51:50;;;;;;;30.50;15.98;;;2.80;1.00;;;;;;5055947;28;20041;-32
2022/12/03 12:54:19;;;;;;;31.63;16.15;;;2.80;99.90;;;;;;5055544;28;20136;-32
2022/12/03 12:56:48;;;;;;;29.92;16.08;;;2.80;99.90;;;;;;5055221;28;20406;-32
2022/12/03 12:59:23;;;;;;;29.10;16.42;;;2.80;99.90;;;;;;5055250;28;20064;-32
2022/12/03 13:01:49;;;;;;;27.58;15.07;;;3.00;99.90;;;;;;5055131;28;20123;-32
2022/12/03 13:04:18;;;;;;;29.30;16.15;;;2.80;99.90;;;;;;5055166;28;20041;-32
2022/12/03 13:06:45;;;;;;;31.90;16.98;;;2.80;99.90;;;;;;5054071;28;20057;-32